Time;durP1;ratioP1;P1;durP2;ratioP2;P2;SDS_P1;SDS_P2;PMS_P1;PMS_P2;Temp;Humidity;BMP_temperature;BMP_pressure;BME280_temperature;BME280_humidity;BME280_pressure;Samples;Min_cycle;Max_cycle;Signal;HPM_P1;HPM_P2
2022/08/01 00:02:20;;;;;;;2.63;2.42;;;24.90;19.50;;;;;;5071571;28;20259;-71
2022/08/01 00:04:47;;;;;;;3.05;2.50;;;24.80;20.20;;;;;;5071276;28;20669;-72
2022/08/01 00:07:14;;;;;;;2.20;2.00;;;24.80;20.60;;;;;;5069548;28;20705;-83
2022/08/01 00:09:42;;;;;;;3.72;2.10;;;24.70;20.80;;;;;;5071670;28;20206;-84
2022/08/01 00:12:09;;;;;;;2.40;1.90;;;24.60;22.00;;;;;;5076299;28;20218;-82
2022/08/01 00:14:36;;;;;;;1.70;1.60;;;24.70;22.20;;;;;;5088500;28;20245;-78
2022/08/01 00:17:03;;;;;;;2.17;1.90;;;24.70;20.50;;;;;;5077445;28;20210;-80
2022/08/01 00:19:30;;;;;;;2.38;2.22;;;24.60;21.30;;;;;;5091590;28;20263;-79
2022/08/01 00:21:57;;;;;;;2.38;2.05;;;24.60;21.40;;;;;;5091757;28;20259;-80
2022/08/01 00:24:24;;;;;;;4.72;2.58;;;24.60;22.10;;;;;;5089062;28;20240;-77
2022/08/01 00:26:53;;;;;;;6.65;2.08;;;24.60;21.70;;;;;;5084396;28;20240;-76
2022/08/01 00:29:20;;;;;;;3.92;2.33;;;24.60;21.60;;;;;;5091249;28;20259;-71
2022/08/01 00:31:46;;;;;;;2.58;2.38;;;24.60;22.10;;;;;;5091100;28;20209;-77
2022/08/01 00:34:13;;;;;;;2.20;2.00;;;24.60;22.90;;;;;;5091130;28;20205;-71
2022/08/01 00:36:40;;;;;;;2.42;2.22;;;24.50;22.50;;;;;;5090229;28;20567;-74
2022/08/01 00:39:07;;;;;;;2.45;2.25;;;24.40;23.70;;;;;;5091089;28;20734;-75
2022/08/01 00:41:35;;;;;;;3.83;2.28;;;24.40;23.80;;;;;;5083165;28;20210;-73
2022/08/01 00:44:05;;;;;;;2.65;2.35;;;24.40;28.40;;;;;;5084885;28;20205;-74
2022/08/01 00:46:32;;;;;;;2.60;2.17;;;24.40;24.60;;;;;;5077072;28;20727;-72
2022/08/01 00:49:00;;;;;;;2.47;2.28;;;24.30;25.20;;;;;;5091151;28;20266;-71
2022/08/01 00:51:27;;;;;;;2.20;2.00;;;24.30;25.50;;;;;;5091065;28;20733;-72
2022/08/01 00:53:55;;;;;;;2.72;2.53;;;24.20;25.90;;;;;;5091305;28;20233;-76
2022/08/01 00:56:24;;;;;;;3.45;2.75;;;24.20;25.90;;;;;;5090997;28;20205;-76
2022/08/01 00:58:51;;;;;;;2.90;2.30;;;24.30;26.50;;;;;;5090613;28;21021;-73
2022/08/01 01:01:21;;;;;;;4.05;2.95;;;24.20;28.60;;;;;;5090580;28;20622;-75
2022/08/01 01:03:48;;;;;;;2.58;2.38;;;24.30;27.30;;;;;;5090694;28;20252;-76
2022/08/01 01:06:38;;;;;;;2.67;2.47;;;24.10;27.80;;;;;;5090614;28;20229;-75
2022/08/01 01:09:24;;;;;;;3.13;2.88;;;24.10;28.40;;;;;;5090839;28;20233;-72
2022/08/01 01:12:00;;;;;;;3.08;2.88;;;24.00;29.20;;;;;;5090194;28;20206;-74
2022/08/01 01:14:34;;;;;;;3.33;3.13;;;24.00;30.70;;;;;;5090671;28;20266;-85
2022/08/01 01:17:05;;;;;;;3.00;2.70;;;24.00;30.90;;;;;;5076283;28;20213;-73
2022/08/01 01:19:36;;;;;;;3.80;2.80;;;24.00;29.20;;;;;;5090293;28;20205;-73
2022/08/01 01:22:22;;;;;;;4.35;3.97;;;24.00;30.60;;;;;;5090390;28;20214;-77
2022/08/01 01:25:08;;;;;;;4.03;3.65;;;23.90;30.10;;;;;;5090149;28;20209;-77
2022/08/01 01:27:46;;;;;;;3.33;3.00;;;23.90;30.40;;;;;;5090016;28;20233;-79
2022/08/01 01:30:14;;;;;;;4.25;3.83;;;23.80;29.80;;;;;;5090343;28;20201;-78
2022/08/01 01:32:46;;;;;;;3.05;2.83;;;23.80;29.60;;;;;;5090141;28;20242;-77
2022/08/01 01:35:19;;;;;;;3.97;3.65;;;23.80;30.10;;;;;;5090658;28;20667;-74
2022/08/01 01:37:48;;;;;;;4.57;3.60;;;23.60;30.10;;;;;;5090123;28;20255;-73
2022/08/01 01:40:18;;;;;;;3.25;3.05;;;23.50;31.20;;;;;;5090575;28;20258;-83
2022/08/01 01:42:46;;;;;;;3.65;3.35;;;23.50;31.30;;;;;;5089959;28;20259;-77
2022/08/01 01:45:15;;;;;;;3.85;2.72;;;23.50;31.50;;;;;;5090555;28;20213;-75
2022/08/01 01:47:43;;;;;;;3.25;2.95;;;23.50;33.40;;;;;;5091671;28;20237;-80
2022/08/01 01:50:12;;;;;;;3.70;3.40;;;23.50;34.00;;;;;;5083249;28;20678;-75
2022/08/01 01:52:43;;;;;;;2.92;2.58;;;23.50;34.90;;;;;;5091606;28;20731;-75
2022/08/01 01:55:11;;;;;;;4.57;2.55;;;23.50;36.70;;;;;;5094515;28;20221;-77
2022/08/01 01:57:41;;;;;;;3.80;3.05;;;23.50;34.10;;;;;;5093509;28;20303;-81
2022/08/01 02:00:09;;;;;;;3.25;2.92;;;23.50;35.80;;;;;;5094509;28;20565;-78
2022/08/01 02:02:39;;;;;;;2.97;2.67;;;23.30;36.40;;;;;;5093896;28;20768;-75
2022/08/01 02:05:08;;;;;;;2.92;2.63;;;23.30;38.40;;;;;;5094641;28;20235;-75
2022/08/01 02:07:36;;;;;;;3.20;2.95;;;23.30;37.50;;;;;;5093619;28;20229;-77
2022/08/01 02:10:05;;;;;;;3.85;2.92;;;23.20;38.40;;;;;;5094389;28;20259;-75
2022/08/01 02:12:36;;;;;;;3.42;3.13;;;23.10;39.60;;;;;;5093693;28;20205;-74
2022/08/01 02:15:05;;;;;;;3.17;2.53;;;23.10;39.70;;;;;;5091814;28;20266;-82
2022/08/01 02:17:37;;;;;;;5.75;3.55;;;23.00;39.90;;;;;;5082176;28;20209;-74
2022/08/01 02:20:06;;;;;;;3.53;3.22;;;23.00;41.40;;;;;;5094024;28;20206;-74
2022/08/01 02:22:37;;;;;;;2.95;2.75;;;22.90;41.30;;;;;;5093515;28;20201;-81
2022/08/01 02:25:11;;;;;;;3.92;2.70;;;23.00;40.70;;;;;;5093873;28;20209;-74
2022/08/01 02:27:43;;;;;;;3.15;2.70;;;23.00;42.50;;;;;;5093283;28;20715;-74
2022/08/01 02:30:13;;;;;;;3.30;2.95;;;23.00;42.40;;;;;;5093975;28;20668;-75
2022/08/01 02:32:45;;;;;;;4.13;2.70;;;23.00;43.10;;;;;;5093734;28;20201;-75
2022/08/01 02:35:20;;;;;;;3.25;2.80;;;22.90;45.40;;;;;;5093593;28;20206;-81
2022/08/01 02:37:49;;;;;;;2.78;2.58;;;22.80;44.70;;;;;;5080334;28;20660;-75
2022/08/01 02:40:18;;;;;;;3.92;3.08;;;22.80;45.10;;;;;;5093510;28;20251;-78
2022/08/01 02:42:48;;;;;;;3.05;2.85;;;22.60;44.60;;;;;;5065198;28;20668;-76
2022/08/01 02:45:18;;;;;;;3.55;3.25;;;22.70;47.20;;;;;;5093488;28;20256;-77
2022/08/01 02:47:46;;;;;;;3.90;2.90;;;22.70;46.00;;;;;;5092783;28;20781;-78
2022/08/01 02:50:17;;;;;;;3.00;2.80;;;22.80;46.60;;;;;;5093661;28;20263;-75
2022/08/01 02:52:47;;;;;;;3.00;2.80;;;22.70;47.50;;;;;;5092909;28;20205;-73
2022/08/01 02:55:14;;;;;;;5.25;2.83;;;22.50;47.90;;;;;;5093235;28;20326;-73
2022/08/01 02:57:43;;;;;;;3.83;2.92;;;22.50;48.20;;;;;;5092820;28;20661;-73
2022/08/01 03:00:11;;;;;;;5.40;3.08;;;22.50;48.80;;;;;;5092367;28;20243;-73
2022/08/01 03:02:39;;;;;;;3.45;3.15;;;22.50;50.10;;;;;;5092849;28;20262;-74
2022/08/01 03:05:09;;;;;;;2.50;2.30;;;22.60;49.60;;;;;;5093408;28;20213;-73
2022/08/01 03:07:38;;;;;;;3.15;2.95;;;22.70;51.20;;;;;;5092690;28;20233;-78
2022/08/01 03:10:06;;;;;;;3.08;2.78;;;22.50;50.70;;;;;;5092874;28;20205;-75
2022/08/01 03:12:35;;;;;;;3.40;3.10;;;22.50;50.50;;;;;;5092495;28;20201;-73
2022/08/01 03:15:04;;;;;;;4.60;3.25;;;22.50;51.50;;;;;;5090646;28;20209;-72
2022/08/01 03:17:32;;;;;;;2.78;2.55;;;22.50;53.00;;;;;;5081233;28;20271;-74
2022/08/01 03:20:02;;;;;;;3.75;3.10;;;22.30;53.80;;;;;;5092900;28;20209;-72
2022/08/01 03:22:31;;;;;;;3.95;3.28;;;22.30;52.80;;;;;;5092967;28;20258;-74
2022/08/01 03:25:02;;;;;;;3.63;2.70;;;22.30;54.30;;;;;;5092545;28;20205;-74
2022/08/01 03:27:30;;;;;;;2.53;2.33;;;22.20;55.00;;;;;;5092569;28;20225;-74
2022/08/01 03:29:59;;;;;;;2.97;2.67;;;22.30;55.40;;;;;;5093270;28;20288;-75
2022/08/01 03:32:29;;;;;;;2.58;2.38;;;22.20;55.60;;;;;;5081129;28;20604;-73
2022/08/01 03:34:57;;;;;;;5.88;3.05;;;22.10;56.70;;;;;;5083954;28;20205;-75
2022/08/01 03:37:26;;;;;;;3.50;3.20;;;22.00;57.40;;;;;;5091319;28;20201;-73
2022/08/01 03:39:59;;;;;;;3.20;2.90;;;21.90;59.10;;;;;;5083029;28;20209;-73
2022/08/01 03:42:32;;;;;;;3.00;2.75;;;22.00;61.70;;;;;;5092457;28;20239;-74
2022/08/01 03:45:03;;;;;;;5.30;3.72;;;22.10;60.90;;;;;;5092643;28;20202;-74
2022/08/01 03:47:33;;;;;;;3.60;3.30;;;22.10;60.10;;;;;;5077763;28;20221;-76
2022/08/01 03:50:03;;;;;;;3.47;3.10;;;22.10;61.70;;;;;;5087415;28;20252;-74
2022/08/01 03:52:31;;;;;;;3.45;3.15;;;21.90;62.10;;;;;;5088419;28;20216;-75
2022/08/01 03:55:06;;;;;;;3.60;3.28;;;21.80;63.50;;;;;;5092366;28;20205;-73
2022/08/01 03:57:34;;;;;;;4.38;2.80;;;21.70;64.40;;;;;;5091396;28;20212;-76
2022/08/01 04:00:06;;;;;;;5.80;3.15;;;21.80;63.90;;;;;;5092087;28;20216;-75
2022/08/01 04:02:33;;;;;;;3.22;2.97;;;21.80;64.10;;;;;;5091427;28;20256;-80
2022/08/01 04:05:00;;;;;;;2.88;2.60;;;21.70;66.60;;;;;;5092135;28;20617;-78
2022/08/01 04:07:30;;;;;;;2.70;2.50;;;21.60;66.20;;;;;;5092288;28;20295;-79
2022/08/01 04:09:57;;;;;;;3.33;2.42;;;21.60;67.40;;;;;;5092478;28;20209;-80
2022/08/01 04:12:26;;;;;;;3.13;2.53;;;21.60;68.90;;;;;;5080085;28;20637;-79
2022/08/01 04:14:53;;;;;;;2.95;2.75;;;21.70;67.90;;;;;;5089015;28;20213;-78
2022/08/01 04:17:21;;;;;;;2.92;2.60;;;21.60;68.80;;;;;;5075068;28;20205;-74
2022/08/01 04:19:49;;;;;;;3.67;2.35;;;21.50;70.10;;;;;;5080388;28;20796;-79
2022/08/01 04:22:18;;;;;;;3.17;2.75;;;21.30;72.70;;;;;;5085074;28;20720;-80
2022/08/01 04:24:49;;;;;;;3.67;3.17;;;21.20;76.40;;;;;;5088626;28;20308;-80
2022/08/01 04:27:22;;;;;;;4.10;3.03;;;21.30;74.30;;;;;;5079185;28;20735;-79
2022/08/01 04:29:52;;;;;;;3.45;2.88;;;21.30;74.10;;;;;;5088256;28;20228;-80
2022/08/01 04:32:22;;;;;;;4.22;3.83;;;21.30;75.20;;;;;;5086825;28;20267;-77
2022/08/01 04:34:52;;;;;;;5.43;3.00;;;21.10;74.60;;;;;;5089232;28;20669;-81
2022/08/01 04:37:20;;;;;;;2.63;2.42;;;21.10;77.30;;;;;;5088306;28;20202;-75
2022/08/01 04:39:50;;;;;;;3.97;2.90;;;21.20;78.00;;;;;;5089976;28;20628;-75
2022/08/01 04:42:18;;;;;;;2.80;2.40;;;21.20;78.50;;;;;;5088290;28;20584;-76
2022/08/01 04:44:45;;;;;;;2.85;2.28;;;21.20;80.20;;;;;;5070604;28;20224;-78
2022/08/01 04:47:14;;;;;;;2.92;2.72;;;21.20;81.60;;;;;;5071428;28;20230;-77
2022/08/01 04:49:42;;;;;;;4.10;3.00;;;21.30;80.30;;;;;;5071545;28;20198;-79
2022/08/01 04:52:09;;;;;;;5.05;2.90;;;21.20;80.70;;;;;;5072530;28;20252;-76
2022/08/01 04:54:37;;;;;;;3.00;2.70;;;21.10;83.20;;;;;;5072591;28;20206;-76
2022/08/01 04:57:05;;;;;;;3.00;2.70;;;21.20;82.10;;;;;;5073028;28;20665;-76
2022/08/01 04:59:42;;;;;;;3.28;2.97;;;21.30;83.20;;;;;;5075658;28;20247;-76
2022/08/01 05:02:10;;;;;;;3.65;2.13;;;21.20;83.90;;;;;;5075435;28;20255;-76
2022/08/01 05:04:39;;;;;;;3.42;3.13;;;21.30;84.10;;;;;;5071809;28;20235;-76
2022/08/01 05:07:07;;;;;;;3.90;3.50;;;21.20;84.40;;;;;;5074957;28;20226;-76
2022/08/01 05:09:35;;;;;;;3.28;2.53;;;21.20;84.80;;;;;;5077806;28;20734;-76
2022/08/01 05:12:04;;;;;;;3.35;2.80;;;21.20;87.50;;;;;;5075444;28;20210;-76
2022/08/01 05:14:32;;;;;;;3.83;3.00;;;21.10;87.10;;;;;;5080391;28;20210;-75
2022/08/01 05:16:59;;;;;;;3.47;2.97;;;21.00;89.70;;;;;;5070764;28;20210;-76
2022/08/01 05:19:27;;;;;;;6.53;4.35;;;20.80;88.60;;;;;;5060551;28;20206;-77
2022/08/01 05:21:56;;;;;;;4.78;3.22;;;20.70;90.10;;;;;;5069616;28;20202;-76
2022/08/01 05:24:23;;;;;;;4.10;2.80;;;20.80;90.50;;;;;;5070131;28;20214;-76
2022/08/01 05:26:50;;;;;;;5.53;3.85;;;20.90;90.50;;;;;;5068151;28;20205;-76
2022/08/01 05:29:17;;;;;;;6.03;3.75;;;20.90;91.00;;;;;;5069667;28;20283;-76
2022/08/01 05:31:44;;;;;;;4.15;3.55;;;20.90;91.30;;;;;;5068828;28;20206;-77
2022/08/01 05:34:11;;;;;;;4.20;3.80;;;21.10;90.80;;;;;;5069425;28;20206;-76
2022/08/01 05:36:38;;;;;;;4.88;3.75;;;21.00;91.40;;;;;;5070209;28;20214;-77
2022/08/01 05:39:06;;;;;;;4.50;4.10;;;21.00;91.20;;;;;;5070249;28;20209;-75
2022/08/01 05:41:33;;;;;;;4.45;4.05;;;21.00;91.30;;;;;;5070366;28;20271;-75
2022/08/01 05:44:00;;;;;;;6.85;4.97;;;20.90;91.50;;;;;;5070239;28;20206;-75
2022/08/01 05:46:27;;;;;;;5.07;4.68;;;20.90;92.30;;;;;;5069744;28;20666;-76
2022/08/01 05:48:54;;;;;;;7.68;5.32;;;21.00;92.60;;;;;;5069589;28;20230;-76
2022/08/01 05:51:21;;;;;;;6.72;4.45;;;21.00;92.00;;;;;;5070542;28;20260;-78
2022/08/01 05:53:48;;;;;;;6.25;4.90;;;21.10;92.10;;;;;;5069861;28;20210;-76
2022/08/01 05:56:16;;;;;;;4.43;4.03;;;21.10;91.80;;;;;;5070028;28;20275;-78
2022/08/01 05:58:43;;;;;;;5.43;3.80;;;21.10;91.70;;;;;;5069762;28;20268;-75
2022/08/01 06:01:10;;;;;;;7.97;5.15;;;21.10;92.00;;;;;;5070021;28;20202;-76
2022/08/01 06:03:37;;;;;;;5.97;5.43;;;21.10;92.50;;;;;;5067769;28;20285;-77
2022/08/01 06:06:05;;;;;;;4.97;4.47;;;21.10;92.50;;;;;;5069665;28;20206;-76
2022/08/01 06:08:32;;;;;;;5.13;4.63;;;21.20;92.10;;;;;;5069679;28;20280;-76
2022/08/01 06:10:59;;;;;;;5.43;4.82;;;21.20;92.50;;;;;;5069974;28;20271;-76
2022/08/01 06:13:28;;;;;;;8.27;5.32;;;21.40;92.70;;;;;;5068834;28;20271;-76
2022/08/01 06:15:54;;;;;;;9.93;5.15;;;21.50;91.70;;;;;;5063315;28;20202;-76
2022/08/01 06:18:21;;;;;;;7.10;5.20;;;21.60;91.40;;;;;;5085274;28;20259;-77
2022/08/01 06:20:48;;;;;;;5.45;4.63;;;21.90;90.80;;;;;;5090150;28;20210;-77
2022/08/01 06:23:16;;;;;;;5.68;5.13;;;21.90;91.20;;;;;;5090281;28;20750;-77
2022/08/01 06:25:43;;;;;;;7.50;5.45;;;22.00;91.00;;;;;;5089829;28;20224;-77
2022/08/01 06:28:10;;;;;;;6.22;5.63;;;21.90;90.80;;;;;;5089981;28;20221;-79
2022/08/01 06:30:38;;;;;;;6.35;5.70;;;22.00;90.20;;;;;;5089434;28;20633;-77
2022/08/01 06:33:05;;;;;;;7.55;6.40;;;22.00;89.90;;;;;;5090123;28;20206;-77
2022/08/01 06:35:32;;;;;;;7.05;6.22;;;22.10;89.40;;;;;;5092608;28;20263;-72
2022/08/01 06:37:59;;;;;;;6.65;5.88;;;22.20;88.50;;;;;;5093772;28;20209;-76
2022/08/01 06:40:26;;;;;;;5.30;4.85;;;22.30;88.50;;;;;;5094046;28;20205;-78
2022/08/01 06:42:53;;;;;;;8.07;6.68;;;22.40;87.00;;;;;;5093589;28;20228;-77
2022/08/01 06:45:22;;;;;;;6.38;5.78;;;22.60;87.50;;;;;;5093548;28;20201;-78
2022/08/01 06:47:50;;;;;;;7.78;6.63;;;22.80;84.00;;;;;;5091600;28;20277;-75
2022/08/01 06:50:17;;;;;;;12.68;6.65;;;22.90;84.50;;;;;;5084511;28;20243;-76
2022/08/01 06:52:44;;;;;;;9.90;6.13;;;23.00;99.90;;;;;;5092917;28;20209;-77
2022/08/01 06:55:11;;;;;;;6.22;5.72;;;23.00;82.40;;;;;;5093356;28;20569;-78
2022/08/01 06:57:46;;;;;;;10.40;6.82;;;23.10;81.90;;;;;;5068158;28;20326;-81
2022/08/01 07:00:15;;;;;;;7.72;6.35;;;23.20;80.30;;;;;;5073675;28;20263;-86
2022/08/01 07:02:43;;;;;;;6.60;5.95;;;23.30;80.40;;;;;;5065449;28;20199;-81
2022/08/01 07:05:11;;;;;;;8.55;6.85;;;23.30;80.20;;;;;;5074589;28;20207;-76
2022/08/01 07:07:38;;;;;;;7.10;6.50;;;23.60;78.10;;;;;;5076609;28;20287;-76
2022/08/01 07:10:08;;;;;;;6.88;6.22;;;23.60;77.90;;;;;;5075382;28;20256;-73
2022/08/01 07:12:36;;;;;;;8.77;5.93;;;23.60;78.20;;;;;;5064374;28;20210;-74
2022/08/01 07:15:04;;;;;;;8.65;6.88;;;23.70;78.50;;;;;;5070604;28;20751;-74
2022/08/01 07:17:31;;;;;;;7.38;6.47;;;23.70;76.80;;;;;;5069134;28;20211;-73
2022/08/01 07:19:58;;;;;;;6.97;6.35;;;23.80;75.10;;;;;;5081658;28;20248;-72
2022/08/01 07:22:26;;;;;;;6.50;5.95;;;23.80;73.90;;;;;;5086232;28;20284;-73
2022/08/01 07:24:53;;;;;;;5.68;5.18;;;23.80;75.10;;;;;;5072133;28;20225;-75
2022/08/01 07:27:20;;;;;;;6.10;5.50;;;24.00;75.30;;;;;;5083797;28;20618;-73
2022/08/01 07:29:47;;;;;;;5.70;5.15;;;24.10;74.10;;;;;;5076140;28;20203;-73
2022/08/01 07:32:14;;;;;;;5.35;4.78;;;24.40;74.50;;;;;;5071802;28;20255;-75
2022/08/01 07:34:42;;;;;;;7.20;5.93;;;24.70;72.40;;;;;;5062590;28;20245;-74
2022/08/01 07:37:09;;;;;;;8.52;6.25;;;24.60;71.60;;;;;;5074503;28;20208;-74
2022/08/01 07:39:38;;;;;;;7.70;5.22;;;24.60;71.90;;;;;;5066879;28;20259;-74
2022/08/01 07:42:05;;;;;;;5.55;5.15;;;24.80;71.30;;;;;;5074809;28;20206;-79
2022/08/01 07:44:32;;;;;;;7.05;5.30;;;25.00;68.70;;;;;;5074972;28;20202;-75
2022/08/01 07:46:59;;;;;;;8.75;5.18;;;24.90;71.00;;;;;;5077601;28;20214;-74
2022/08/01 07:49:26;;;;;;;9.35;5.90;;;24.90;68.10;;;;;;5076308;28;20284;-75
2022/08/01 07:51:54;;;;;;;6.15;5.15;;;24.90;67.90;;;;;;5075713;28;20225;-75
2022/08/01 07:54:23;;;;;;;6.80;5.30;;;25.10;67.80;;;;;;5078298;28;20294;-77
2022/08/01 07:56:52;;;;;;;7.40;4.90;;;25.10;65.80;;;;;;5071962;28;20202;-75
2022/08/01 07:59:22;;;;;;;5.13;4.63;;;25.10;66.80;;;;;;5075164;28;20213;-75
2022/08/01 08:01:50;;;;;;;7.38;5.13;;;25.40;66.00;;;;;;5071503;28;20202;-75
2022/08/01 08:04:17;;;;;;;6.05;5.47;;;25.60;64.40;;;;;;5081366;28;20300;-74
2022/08/01 08:06:44;;;;;;;5.07;4.47;;;25.70;64.80;;;;;;5076732;28;20220;-76
2022/08/01 08:09:11;;;;;;;5.30;4.78;;;25.60;63.90;;;;;;5076238;28;20317;-75
2022/08/01 08:11:39;;;;;;;5.70;5.20;;;25.60;63.20;;;;;;5067079;28;20286;-76
2022/08/01 08:14:07;;;;;;;9.43;4.57;;;25.60;62.30;;;;;;5073098;28;20221;-76
2022/08/01 08:16:35;;;;;;;5.43;4.28;;;25.70;62.90;;;;;;5072370;28;20210;-75
2022/08/01 08:19:02;;;;;;;5.07;4.57;;;25.80;61.00;;;;;;5071367;28;20646;-78
2022/08/01 08:21:30;;;;;;;5.30;4.70;;;26.00;60.50;;;;;;5084322;28;20214;-78
2022/08/01 08:26:41;;;;;;;5.63;4.40;;;26.20;90.90;;;;;;5084800;28;20305;-78
2022/08/01 08:29:10;;;;;;;6.15;5.55;;;26.20;59.80;;;;;;5078715;28;20236;-75
2022/08/01 08:31:37;;;;;;;6.25;5.03;;;26.40;58.80;;;;;;5059250;28;20203;-75
2022/08/01 08:34:04;;;;;;;5.10;4.70;;;26.60;59.10;;;;;;5070718;28;20206;-75
2022/08/01 08:36:31;;;;;;;5.97;4.43;;;26.70;58.50;;;;;;5069128;28;20206;-75
2022/08/01 08:39:00;;;;;;;5.35;4.85;;;26.60;57.70;;;;;;5072280;28;20210;-76
2022/08/01 08:41:27;;;;;;;5.80;5.30;;;26.40;57.20;;;;;;5067215;28;20206;-76
2022/08/01 08:43:56;;;;;;;5.35;4.82;;;26.60;57.30;;;;;;5068065;28;20209;-74
2022/08/01 08:46:25;;;;;;;6.15;4.68;;;26.70;56.90;;;;;;5055339;28;20217;-75
2022/08/01 08:48:52;;;;;;;7.85;4.10;;;26.80;56.10;;;;;;5069086;28;20233;-75
2022/08/01 08:51:20;;;;;;;4.28;3.88;;;26.90;55.80;;;;;;5067521;28;20213;-75
2022/08/01 08:53:48;;;;;;;7.57;4.38;;;27.10;55.80;;;;;;5073275;28;20214;-75
2022/08/01 08:56:15;;;;;;;4.47;4.07;;;27.40;57.40;;;;;;5073424;28;20263;-75
2022/08/01 08:58:45;;;;;;;5.88;4.82;;;27.50;54.40;;;;;;5073898;28;20674;-76
2022/08/01 09:01:13;;;;;;;4.57;4.15;;;27.50;53.80;;;;;;5071287;28;20206;-75
2022/08/01 09:03:41;;;;;;;4.78;4.38;;;27.60;53.90;;;;;;5058113;28;20674;-77
2022/08/01 09:06:09;;;;;;;5.88;5.32;;;27.80;53.40;;;;;;5066582;28;20573;-77
2022/08/01 09:08:36;;;;;;;4.95;4.30;;;28.00;53.70;;;;;;5069047;28;20233;-77
2022/08/01 09:11:04;;;;;;;9.55;5.28;;;28.30;53.70;;;;;;5069345;28;20214;-76
2022/08/01 09:13:31;;;;;;;5.97;4.93;;;28.80;53.10;;;;;;5069917;28;20268;-76
2022/08/01 09:15:59;;;;;;;6.55;5.53;;;28.90;52.60;;;;;;5080413;28;20213;-77
2022/08/01 09:18:33;;;;;;;7.93;4.68;;;28.40;50.80;;;;;;5091314;28;20286;-79
2022/08/01 09:21:15;;;;;;;6.07;5.57;;;28.90;50.70;;;;;;5090898;28;20706;-78
2022/08/01 09:23:45;;;;;;;6.05;5.28;;;28.70;49.50;;;;;;5090414;28;20217;-76
2022/08/01 09:26:13;;;;;;;6.03;5.20;;;29.40;49.80;;;;;;5090694;28;20680;-75
2022/08/01 09:28:41;;;;;;;5.30;4.90;;;29.50;49.20;;;;;;5090121;28;20229;-76
2022/08/01 09:31:10;;;;;;;5.70;5.00;;;29.70;50.00;;;;;;5075372;28;20268;-76
2022/08/01 09:33:55;;;;;;;7.05;5.43;;;29.60;47.40;;;;;;5079695;28;20268;-76
2022/08/01 09:36:26;;;;;;;5.22;4.72;;;30.40;49.10;;;;;;5090737;28;20200;-77
2022/08/01 09:38:55;;;;;;;8.95;5.20;;;30.90;49.50;;;;;;5090095;28;20209;-75
2022/08/01 09:41:30;;;;;;;5.50;4.72;;;33.70;48.40;;;;;;5090595;28;20207;-79
2022/08/01 09:43:59;;;;;;;9.05;6.15;;;34.10;45.30;;;;;;5091001;28;20215;-78
2022/08/01 09:46:26;;;;;;;5.65;5.07;;;33.20;43.50;;;;;;5090816;28;20247;-78
2022/08/01 09:49:00;;;;;;;4.85;4.47;;;32.30;45.10;;;;;;5090265;28;20289;-77
2022/08/01 09:51:34;;;;;;;5.57;5.05;;;34.10;46.50;;;;;;5090886;28;20324;-80
2022/08/01 09:54:04;;;;;;;5.50;5.10;;;35.70;48.50;;;;;;5090422;28;20209;-76
2022/08/01 09:56:38;;;;;;;5.35;4.85;;;38.20;53.00;;;;;;5090496;28;20205;-77
2022/08/01 09:59:06;;;;;;;6.68;4.35;;;38.70;51.20;;;;;;5090308;28;20211;-75
2022/08/01 10:01:45;;;;;;;5.93;5.20;;;38.80;53.10;;;;;;5090275;28;20201;-77
2022/08/01 10:04:13;;;;;;;5.40;4.22;;;38.10;47.20;;;;;;5090319;28;20244;-80
2022/08/01 10:06:44;;;;;;;7.30;5.25;;;38.00;49.70;;;;;;5084580;28;20205;-78
2022/08/01 10:09:13;;;;;;;4.90;4.47;;;38.20;50.60;;;;;;5084994;28;20272;-78
2022/08/01 10:11:42;;;;;;;5.45;4.72;;;37.90;48.80;;;;;;5065821;28;20254;-75
2022/08/01 10:14:09;;;;;;;5.45;4.95;;;36.70;43.00;;;;;;5094488;28;20282;-77
2022/08/01 10:16:37;;;;;;;6.25;4.60;;;37.30;45.00;;;;;;5079173;28;20676;-73
2022/08/01 10:19:07;;;;;;;3.50;3.30;;;37.80;45.30;;;;;;5094179;28;20236;-73
2022/08/01 10:21:34;;;;;;;7.53;5.15;;;37.20;45.80;;;;;;5093595;28;20211;-73
2022/08/01 10:24:04;;;;;;;8.48;5.25;;;37.40;46.80;;;;;;5093884;28;20212;-73
2022/08/01 10:26:35;;;;;;;7.93;5.10;;;39.00;48.80;;;;;;5094575;28;20257;-73
2022/08/01 10:29:03;;;;;;;5.75;5.07;;;40.80;55.40;;;;;;5074162;28;20267;-73
2022/08/01 10:31:32;;;;;;;13.20;5.65;;;42.10;61.50;;;;;;5074566;28;20288;-72
2022/08/01 10:34:00;;;;;;;8.90;4.90;;;43.20;65.90;;;;;;5084703;28;20213;-71
2022/08/01 10:36:28;;;;;;;6.95;5.22;;;43.70;70.50;;;;;;5092633;28;20213;-70
2022/08/01 10:38:56;;;;;;;6.78;4.75;;;43.20;68.70;;;;;;5091389;28;20208;-70
2022/08/01 10:41:26;;;;;;;4.65;4.18;;;42.60;58.80;;;;;;5093379;28;20209;-70
2022/08/01 10:43:53;;;;;;;5.47;4.97;;;37.00;38.60;;;;;;5086442;28;20287;-69
2022/08/01 10:46:21;;;;;;;5.50;4.68;;;34.30;35.20;;;;;;5073313;28;20213;-69
2022/08/01 10:48:56;;;;;;;5.72;5.28;;;32.80;34.90;;;;;;5072687;28;20221;-69
2022/08/01 10:51:24;;;;;;;5.63;4.97;;;32.00;32.40;;;;;;5073365;28;20209;-69
2022/08/01 10:53:53;;;;;;;8.23;5.00;;;31.60;32.40;;;;;;5072633;28;20619;-69
2022/08/01 10:56:21;;;;;;;4.90;4.43;;;31.60;32.40;;;;;;5072802;28;20208;-69
2022/08/01 10:58:56;;;;;;;5.22;4.82;;;31.60;31.50;;;;;;5072635;28;20216;-69
2022/08/01 11:01:26;;;;;;;4.53;4.13;;;31.60;30.00;;;;;;5072891;28;20205;-70
2022/08/01 11:04:04;;;;;;;4.85;4.45;;;31.70;32.00;;;;;;5073121;28;20201;-69
2022/08/01 11:06:52;;;;;;;5.60;5.05;;;31.80;30.10;;;;;;5072600;28;20197;-69
2022/08/01 11:09:27;;;;;;;5.00;4.60;;;31.70;30.00;;;;;;5071402;28;20233;-69
2022/08/01 11:12:04;;;;;;;5.82;5.38;;;31.60;30.00;;;;;;5072653;28;20667;-69
2022/08/01 11:14:33;;;;;;;4.43;4.13;;;31.40;29.80;;;;;;5072587;28;20262;-71
2022/08/01 11:17:31;;;;;;;6.03;5.03;;;31.20;29.20;;;;;;5072808;28;20209;-69
2022/08/01 11:20:10;;;;;;;4.78;4.38;;;31.10;29.00;;;;;;5055993;28;20555;-69
2022/08/01 11:23:18;;;;;;;4.80;4.40;;;31.40;28.80;;;;;;5061867;28;20602;-66
2022/08/01 11:26:08;;;;;;;6.13;4.35;;;31.80;29.20;;;;;;5043918;28;20254;-70
2022/08/01 11:28:35;;;;;;;5.10;4.70;;;32.00;29.70;;;;;;5071776;28;20205;-68
2022/08/01 11:31:31;;;;;;;5.38;5.05;;;31.90;29.40;;;;;;5072546;28;20201;-71
2022/08/01 11:33:58;;;;;;;5.60;4.70;;;32.00;29.20;;;;;;5072621;28;20205;-70
2022/08/01 11:36:25;;;;;;;7.18;5.38;;;32.10;29.10;;;;;;5072487;28;20206;-69
2022/08/01 11:39:16;;;;;;;4.60;4.30;;;32.20;28.50;;;;;;5067322;28;20283;-69
2022/08/01 11:41:48;;;;;;;5.20;4.55;;;32.30;27.30;;;;;;5069900;28;20251;-71
2022/08/01 11:44:18;;;;;;;5.25;4.75;;;31.80;26.50;;;;;;5076743;28;20245;-70
2022/08/01 11:46:59;;;;;;;5.35;4.95;;;32.00;26.90;;;;;;5080130;28;20244;-70
2022/08/01 11:49:32;;;;;;;5.43;5.03;;;32.20;27.00;;;;;;5077487;28;20282;-70
2022/08/01 11:52:06;;;;;;;6.53;4.25;;;32.20;27.20;;;;;;5083427;28;20709;-71
2022/08/01 11:54:34;;;;;;;5.15;4.20;;;32.40;27.10;;;;;;5079773;28;20206;-71
2022/08/01 11:57:06;;;;;;;5.03;4.63;;;32.50;26.30;;;;;;5085523;28;20205;-71
2022/08/01 11:59:41;;;;;;;4.75;4.35;;;31.80;25.20;;;;;;5077980;28;20635;-71
2022/08/01 12:02:21;;;;;;;5.88;4.88;;;31.80;25.90;;;;;;5069982;28;20212;-71
2022/08/01 12:04:50;;;;;;;5.22;4.30;;;31.90;25.00;;;;;;5082201;28;20964;-71
2022/08/01 12:07:19;;;;;;;4.32;3.92;;;31.90;24.30;;;;;;5087886;28;20209;-71
2022/08/01 12:09:47;;;;;;;5.00;4.60;;;32.20;24.80;;;;;;5083787;28;20704;-71
2022/08/01 12:12:17;;;;;;;4.22;3.90;;;32.20;24.30;;;;;;5088576;28;20216;-73
2022/08/01 12:14:46;;;;;;;3.95;3.45;;;32.30;25.80;;;;;;5085978;28;20300;-73
2022/08/01 12:17:13;;;;;;;5.18;3.60;;;32.60;25.40;;;;;;5072073;28;20259;-73
2022/08/01 12:19:42;;;;;;;3.88;3.47;;;32.50;24.50;;;;;;5071819;28;20264;-69
2022/08/01 12:22:11;;;;;;;4.32;3.95;;;32.60;23.70;;;;;;5072101;28;20255;-71
2022/08/01 12:24:40;;;;;;;4.15;3.88;;;33.20;25.10;;;;;;5069981;28;20664;-69
2022/08/01 12:27:08;;;;;;;3.75;3.42;;;32.90;24.40;;;;;;5071120;28;20201;-70
2022/08/01 12:29:37;;;;;;;4.30;3.90;;;32.80;24.00;;;;;;5071011;28;20229;-75
2022/08/01 12:32:05;;;;;;;4.50;3.45;;;32.80;23.50;;;;;;5070219;28;20224;-70
2022/08/01 12:34:34;;;;;;;4.07;3.63;;;32.90;23.40;;;;;;5070721;28;20243;-70
2022/08/01 12:37:03;;;;;;;4.50;3.75;;;32.70;22.70;;;;;;5055335;28;20210;-71
2022/08/01 12:39:34;;;;;;;4.03;3.50;;;33.00;22.90;;;;;;5073615;28;20209;-74
2022/08/01 12:42:01;;;;;;;3.72;3.53;;;32.80;23.70;;;;;;5077360;28;20626;-73
2022/08/01 12:44:31;;;;;;;5.10;3.83;;;32.90;21.90;;;;;;5064689;28;20258;-69
2022/08/01 12:46:59;;;;;;;5.47;3.40;;;32.70;22.60;;;;;;5072962;28;20217;-69
2022/08/01 12:49:26;;;;;;;3.75;3.33;;;32.80;22.70;;;;;;5075361;28;20222;-69
2022/08/01 12:51:56;;;;;;;3.47;2.83;;;33.00;21.80;;;;;;5076506;28;20296;-72
2022/08/01 12:54:25;;;;;;;2.72;2.20;;;33.10;21.60;;;;;;5077570;28;20205;-74
2022/08/01 12:56:53;;;;;;;4.13;3.58;;;33.20;20.30;;;;;;5076281;28;20217;-74
2022/08/01 12:59:22;;;;;;;2.53;2.15;;;33.50;20.60;;;;;;5079450;28;20205;-74
2022/08/01 13:01:50;;;;;;;3.63;3.03;;;33.50;21.90;;;;;;5076686;28;20240;-70